Station: Goondiwindi

  Atmospheric Gas Attenuation - ITU Rec 676-11   --------------- db/100km ---------------
Date Time Temp RH % AH g/m3 Dew Point Wind Direction Speed kph Gust kph Barometer mB Rainfall Since 9am 24GHz 47GHz 76GHz 122GHz 134GHz 241GHz
27 02:10 25.3 76 17.79 20.9 1013.1 0 38.4 37.6 71.3 188.4 205.5 713.8
27 02:00 25.3 77 18.03 21 1008.9 0 38.9 37.9 72.1 190.7 208.5 724.2
27 01:50 25.4 76 17.89 21 1013.1 0 38.6 37.8 71.6 189.4 206.7 718.1
27 01:40 25.5 75 17.76 20.9 1013.1 0 38.3 37.5 70.9 187.6 204.5 710.4
27 01:20 25.9 74 17.92 20.9 1013.1 0 38.6 37.6 71.3 188.5 205.8 714.9
27 01:10 26.1 72 17.63 20.8 1013.1 0 37.9 37.0 69.8 184.6 201.0 698.2
27 01:00 26.7 67 16.96 20.1 1009.6 0 36.5 35.4 66.1 174.8 189.3 657.4
27 00:50 26.9 64 16.38 19.7 1013.1 0 35.2 34.5 63.6 168.1 181.1 628.8
27 00:40 26.6 68 17.12 20.2 1013.1 0 36.8 35.9 67.1 177.4 192.3 667.9
27 00:30 26.2 70 17.23 20.3 1009.3 0 37.1 36.1 67.7 179.0 194.4 675.1
27 00:20 26.5 68 17.02 20.1 1013.1 0 36.6 35.7 66.7 176.4 191.1 663.8
27 00:10 26.5 66 16.52 19.6 1013.1 0 35.6 34.9 64.6 170.6 184.0 638.9
27 00:00 26.6 66 16.61 19.7 1009.3 0 35.8 34.8 64.6 170.9 184.5 640.8
26 23:50 26.8 64 16.29 19.6 1013.1 0 35.1 34.3 63.3 167.3 180.0 625.2
26 23:40 26.9 64 16.38 19.7 1013.1 0 35.2 34.5 63.6 168.1 181.1 628.8
26 23:30 26.9 65 16.64 19.8 1009.6 0 35.8 34.8 64.5 170.6 184.2 639.9
26 23:20 26.6 66 16.61 19.7 1013.1 0 35.7 35.0 64.9 171.4 185.0 642.6
26 23:10 26.4 66 16.43 19.5 1013.1 0 35.4 34.7 64.2 169.8 182.9 635.3
26 23:00 26.4 66 16.43 19.5 1009.4 0 35.4 34.6 64.0 169.3 182.5 633.7
26 22:50 26.4 66 16.43 19.5 1013.1 0 35.4 34.7 64.2 169.8 182.9 635.3
26 22:40 26.4 64 15.93 19.2 1013.1 0 34.3 33.9 62.1 164.1 175.9 610.9
26 22:30 26.5 65 16.27 19.4 1009.4 0 35.1 34.3 63.3 167.2 180.0 625.0
26 22:20 26.4 64 15.93 19.2 1013.1 0 34.3 33.9 62.1 164.1 175.9 610.9
26 22:10 26.6 64 16.11 19.2 1013.1 0 34.7 34.1 62.7 165.7 178.0 618.0
26 22:00 26.8 62 15.78 18.9 1009.3 0 34.0 33.3 60.9 161.0 172.4 598.8
26 21:50 27 60 15.44 18.8 1013.1 0 33.2 32.8 59.6 157.3 167.8 582.7
26 21:40 27.2 59 15.35 18.7 1013.1 0 33.0 32.6 59.0 155.9 166.2 576.9
26 21:30 27.3 59 15.44 18.6 1008.9 0 33.2 32.5 59.1 156.2 166.6 578.6
26 21:20 27.4 58 15.26 18.6 1013.1 0 32.8 32.4 58.5 154.5 164.5 571.2
26 21:10 27.5 58 15.35 18.5 1013.1 0 33.0 32.5 58.8 155.3 165.5 574.7
26 21:00 27.6 58 15.43 18.6 1008.6 0 33.2 32.4 58.8 155.4 165.8 575.8
26 20:50 27.7 58 15.52 18.9 1013.1 0 33.4 32.7 59.4 156.8 167.4 581.2
26 20:40 27.8 58 15.6 19 1013.1 0 33.5 32.8 59.6 157.5 168.2 584.3
26 20:30 27.8 59 15.87 19.1 1008.2 0 34.1 33.0 60.5 159.8 171.3 595.0
26 20:20 27.7 61 16.32 19.7 1013.1 0 35.0 34.0 62.7 165.7 178.3 619.4
26 20:10 27.8 61 16.41 19.8 1013.1 0 35.2 34.1 63.0 166.5 179.3 623.0
26 20:00 27.9 61 16.5 19.9 1007.7 0 35.4 34.0 63.0 166.6 179.7 624.1
26 19:50 28 61 16.59 20 1013.1 0 35.6 34.4 63.6 168.1 181.4 630.1
26 19:40 28 61 16.59 20 1013.1 0 35.6 34.4 63.6 168.1 181.4 630.1
26 19:30 28.2 62 17.05 20.2 1007.5 0 36.6 34.9 65.1 172.1 186.6 648.2
26 19:20 28.3 60 16.59 20 1013.1 0 35.6 34.3 63.4 167.5 180.7 627.6
26 19:10 28.6 58 16.3 19.5 1013.1 0 34.9 33.6 61.9 163.6 176.0 611.3
26 19:00 28.7 59 16.67 19.9 1007 0 35.7 34.0 63.0 166.7 180.0 625.5
26 18:50 28.9 57 16.29 19.5 1013.1 0 34.9 33.5 61.6 162.9 175.2 608.5
26 18:40 29 54 15.51 19 1013.1 0 33.2 32.2 58.3 154.1 164.4 571.2
26 18:30 29 53 15.23 18.7 1007 0 32.7 31.5 56.9 150.3 160.0 555.7
26 18:20 29.1 54 15.6 19.1 1013.1 0 33.4 32.3 58.6 154.9 165.4 574.6
26 18:10 29.2 57 16.55 19.8 1013.1 0 35.4 33.8 62.5 165.1 178.0 618.5
26 18:00 29.5 57 16.83 20.1 1006.9 0 36.0 33.9 63.1 166.7 180.3 626.6
26 17:50 29.8 54 16.2 19.7 1013.1 0 34.6 33.0 60.6 160.0 171.9 597.3
26 17:40 31.1 48 15.45 19.1 1013.1 0 32.9 31.3 56.6 149.5 159.3 553.4
26 17:30 32.8 38 13.39 17 1006.6 0 28.6 27.4 47.4 125.1 130.0 451.3
26 17:20 32.7 38 13.32 16.9 1013.1 0 28.4 27.5 47.5 125.3 130.0 451.2
26 17:10 33 37 13.18 16.7 1013.1 0 28.1 27.2 46.8 123.5 127.8 443.8
26 17:00 33.9 35 13.07 16.7 1006.4 0 27.8 26.6 45.6 120.3 124.5 432.2
26 16:50 33.4 36 13.09 16.7 1013.1 0 27.9 27.0 46.3 122.0 126.1 437.9
26 16:40 33 39 13.89 17.2 1013.1 0 29.6 28.3 49.4 130.3 136.3 473.3
26 16:30 32.6 39 13.6 17.2 1006.4 0 29.0 27.7 48.2 127.4 132.8 461.1
26 16:20 32.7 40 14.02 17.7 1013.1 0 29.9 28.6 50.0 132.1 138.4 480.6
26 16:10 32.6 40 13.95 17.6 1013.1 0 29.7 28.5 49.9 131.6 137.7 478.2
26 16:00 32.5 40 13.87 17.5 1006.8 0 29.6 28.2 49.3 130.2 136.3 473.2
26 15:50 32 43 14.52 18.2 1013.1 0 30.9 29.6 52.4 138.3 145.8 506.4
26 15:40 31.2 50 16.18 19.8 1013.1 0 34.4 32.5 59.4 157.0 168.6 585.9
26 15:30 30.1 53 16.16 19.5 1007.4 0 34.5 32.6 59.9 158.2 170.0 590.7
26 15:20 30.2 53 16.25 19.8 1013.1 0 34.7 32.9 60.4 159.8 171.7 596.6
26 15:10 31 45 14.4 18 1013.1 0 30.8 29.7 52.6 138.8 146.1 507.5
26 15:00 30.5 49 15.27 18.6 1007.6 0 32.6 31.0 56.0 148.0 157.5 547.3
26 14:50 30.4 48 14.88 18.4 1013.1 0 31.8 30.7 54.8 144.8 153.4 532.7
26 14:40 30.8 52 16.47 19.8 1013.1 0 35.1 33.1 60.9 160.9 173.3 602.2
26 14:30 31.8 43 14.37 18 1008 0 30.7 29.2 51.7 136.5 143.7 499.2
26 14:20 31.9 42 14.11 17.7 1013.1 0 30.1 29.0 50.9 134.3 140.9 489.3
26 14:10 32.3 42 14.41 18.1 1013.1 0 30.7 29.3 51.8 136.6 143.9 499.7
26 14:00 32.3 44 15.1 18.5 1008.3 0 32.1 30.2 54.1 143.0 151.9 527.8
26 13:50 32.5 43 14.91 18.6 1013.1 0 31.7 30.0 53.5 141.3 149.7 520.1
26 13:40 34 40 15.02 18.8 1013.1 0 31.8 29.7 52.9 139.8 148.2 515.1
26 13:30 32.6 44 15.34 18.8 1008.6 0 32.6 30.5 54.9 145.0 154.4 536.4
26 13:20 32.8 45 15.86 19.3 1013.1 0 33.7 31.4 57.0 150.5 161.1 559.8
26 13:10 32.3 46 15.78 19.2 1013.1 0 33.5 31.4 57.0 150.6 161.1 559.8
26 13:00 32.2 45 15.36 19.1 1009 0 32.7 30.6 55.2 146.0 155.4 540.2
26 12:50 31 48 15.37 18.7 1013.1 0 32.8 31.2 56.3 148.8 158.5 550.5
26 12:40 31.2 47 15.21 18.8 1013.1 0 32.4 30.9 55.6 146.8 156.0 542.0
26 12:30 31.1 48 15.45 19.1 1009.5 0 33.0 31.2 56.4 149.0 158.9 552.0
26 12:20 31.1 48 15.45 19.1 1013.1 0 32.9 31.3 56.6 149.5 159.3 553.4
26 12:10 30.9 50 15.92 19.5 1013.1 0 33.9 32.1 58.6 154.8 165.8 576.2
26 12:00 31.4 50 16.35 20 1009.8 0 34.8 32.5 59.8 158.0 170.0 590.7
26 11:50 30 52 15.77 19.3 1013.1 0 33.7 32.2 58.7 155.0 165.8 575.9
26 11:40 29.6 52 15.43 18.7 1013.1 0 33.0 31.8 57.6 152.1 162.1 563.1
26 11:30 30.1 53 16.16 19.5 1010.3 0 34.5 32.7 60.0 158.6 170.4 592.0
26 11:20 30 54 16.38 19.9 1013.1 0 35.0 33.2 61.1 161.6 173.9 604.2
26 11:10 29.1 54 15.6 19.1 1013.1 0 33.4 32.3 58.6 154.9 165.4 574.6
26 11:00 28.9 57 16.29 19.5 1010.6 0 34.9 33.4 61.5 162.5 174.8 607.4
26 10:50 29.1 57 16.46 19.7 1013.1 0 35.2 33.7 62.2 164.3 177.0 615.0
26 10:40 28.3 57 15.76 19.2 1013.1 0 33.8 32.9 59.9 158.2 169.3 588.1
26 10:30 27.8 59 15.87 19.1 1010.7 0 34.1 33.1 60.6 160.2 171.6 596.0
26 10:20 28.1 57 15.59 19 1013.1 1.4 33.5 32.6 59.3 156.8 167.5 581.5
26 10:10 28 60 16.32 19.5 1013.1 1.4 35.0 33.9 62.5 165.1 177.6 617.0
26 10:00 27.5 59 15.61 19 1010.5 1.4 33.6 32.8 59.7 157.9 168.7 585.9
26 09:50 27.3 61 15.96 19.1 1013.1 1.4 34.3 33.6 61.5 162.5 174.3 605.2
26 09:40 27 62 15.96 19.1 1013.1 1.4 34.3 33.7 61.7 163.1 175.0 607.6
26 09:30 26.8 63 16.04 19.2 1010.5 1.4 34.5 33.8 62.1 164.1 176.2 611.9

Last Refresh: 27-Feb-2021 01:55:14

Most of the information presented on this site is sourced from the Bureau of Meteorology.  Copyright in all material sourced from the Bureau of Meteorology resides with the Commonwealth of Australia.